createdAt,value
2023-01-09T00:00:33.183Z,1.90
2023-01-09T00:02:59.786Z,4.70
2023-01-09T00:05:26.631Z,4.00
2023-01-09T00:07:53.250Z,2.42
2023-01-09T00:10:20.510Z,3.17
2023-01-09T00:12:46.992Z,1.42
2023-01-09T00:15:13.585Z,1.88
2023-01-09T00:17:40.448Z,1.52
2023-01-09T00:20:10.118Z,1.60
2023-01-09T00:22:37.639Z,1.55
2023-01-09T00:25:05.086Z,1.60
2023-01-09T00:27:35.909Z,1.77
2023-01-09T00:30:03.532Z,1.48
2023-01-09T00:32:30.273Z,2.75
2023-01-09T00:34:57.020Z,1.25
2023-01-09T00:37:23.894Z,1.85
2023-01-09T00:39:50.935Z,1.20
2023-01-09T00:42:28.609Z,1.58
2023-01-09T00:44:58.976Z,1.05
2023-01-09T00:47:31.407Z,1.08
2023-01-09T00:50:03.058Z,0.90
2023-01-09T00:52:34.167Z,0.90
2023-01-09T00:55:00.969Z,1.77
2023-01-09T00:57:27.546Z,0.75
2023-01-09T00:59:54.154Z,1.00
2023-01-09T01:02:21.601Z,0.52
2023-01-09T01:05:06.839Z,2.42
2023-01-09T01:07:40.218Z,0.68
2023-01-09T01:10:11.129Z,1.38
2023-01-09T01:12:38.798Z,1.33
2023-01-09T01:15:07.233Z,0.85
2023-01-09T01:17:38.598Z,1.35
2023-01-09T01:20:06.881Z,0.80
2023-01-09T01:22:33.418Z,1.52
2023-01-09T01:25:00.312Z,0.70
2023-01-09T01:27:27.917Z,0.93
2023-01-09T01:29:54.645Z,1.52
2023-01-09T01:32:21.068Z,2.08
2023-01-09T01:34:47.990Z,0.95
2023-01-09T01:37:14.855Z,0.95
2023-01-09T01:39:41.564Z,1.70
2023-01-09T01:42:08.524Z,1.05
2023-01-09T01:45:01.994Z,1.35
2023-01-09T01:47:34.290Z,2.90
2023-01-09T01:50:07.584Z,0.80
2023-01-09T01:52:36.424Z,1.17
2023-01-09T01:55:23.898Z,1.75
2023-01-09T01:58:14.602Z,3.90
2023-01-09T02:01:02.033Z,1.00
2023-01-09T02:03:51.109Z,1.80
2023-01-09T02:06:38.665Z,1.75
2023-01-09T02:09:26.847Z,0.80
2023-01-09T02:11:57.780Z,1.38
2023-01-09T02:14:28.462Z,1.52
2023-01-09T02:17:13.330Z,0.82
2023-01-09T02:20:15.108Z,1.00
2023-01-09T02:23:07.160Z,1.17
2023-01-09T02:25:48.432Z,1.15
2023-01-09T02:28:30.401Z,0.98
2023-01-09T02:31:12.195Z,2.20
2023-01-09T02:33:57.479Z,1.63
2023-01-09T02:36:54.734Z,3.60
2023-01-09T02:39:33.183Z,2.05
2023-01-09T02:42:07.070Z,1.15
2023-01-09T02:44:37.025Z,2.08
2023-01-09T02:47:29.242Z,1.73
2023-01-09T02:50:01.021Z,0.82
2023-01-09T02:52:33.931Z,1.20
2023-01-09T02:55:25.961Z,3.92
2023-01-09T02:58:01.887Z,2.13
2023-01-09T03:01:05.804Z,2.22
2023-01-09T03:03:52.524Z,2.88
2023-01-09T03:06:31.306Z,1.65
2023-01-09T03:09:05.237Z,4.30
2023-01-09T03:11:39.074Z,3.75
2023-01-09T03:14:12.981Z,6.43
2023-01-09T03:16:41.915Z,1.85
2023-01-09T03:19:15.607Z,1.98
2023-01-09T03:21:44.759Z,1.35
2023-01-09T03:24:11.266Z,1.90
2023-01-09T03:26:38.676Z,1.85
2023-01-09T03:29:05.181Z,1.52
2023-01-09T03:31:32.147Z,1.08
2023-01-09T03:33:59.307Z,1.42
2023-01-09T03:36:26.035Z,1.83
2023-01-09T03:38:53.118Z,2.47
2023-01-09T03:41:20.113Z,1.27
2023-01-09T03:43:48.629Z,3.22
2023-01-09T03:46:18.471Z,2.10
2023-01-09T03:48:45.553Z,2.15
2023-01-09T03:51:12.105Z,2.05
2023-01-09T03:53:38.587Z,4.10
2023-01-09T03:56:05.482Z,4.63
2023-01-09T03:58:32.451Z,1.45
2023-01-09T04:01:01.702Z,3.70
2023-01-09T04:03:29.260Z,2.80
2023-01-09T04:05:55.801Z,2.78
2023-01-09T04:08:22.838Z,2.15
2023-01-09T04:10:50.661Z,2.35
2023-01-09T04:13:17.813Z,1.52
2023-01-09T04:18:15.295Z,2.25
2023-01-09T04:20:42.453Z,3.05
2023-01-09T04:23:09.258Z,3.30
2023-01-09T04:25:35.743Z,1.65
2023-01-09T04:28:02.143Z,2.38
2023-01-09T04:30:28.925Z,1.30
2023-01-09T04:32:55.701Z,1.13
2023-01-09T04:35:22.688Z,1.63
2023-01-09T04:37:49.204Z,2.13
2023-01-09T04:40:16.807Z,2.38
2023-01-09T04:42:43.486Z,1.65
2023-01-09T04:45:11.923Z,2.33
2023-01-09T04:47:38.967Z,1.15
2023-01-09T04:50:05.748Z,0.95
2023-01-09T04:52:32.391Z,1.08
2023-01-09T04:54:59.675Z,4.07
2023-01-09T04:57:26.400Z,1.75
2023-01-09T04:59:54.237Z,1.40
2023-01-09T05:02:21.215Z,1.77
2023-01-09T05:04:48.006Z,1.88
2023-01-09T05:07:14.678Z,2.63
2023-01-09T05:09:41.803Z,1.75
2023-01-09T05:12:08.501Z,0.93
2023-01-09T05:14:35.397Z,1.13
2023-01-09T05:17:02.340Z,0.80
2023-01-09T05:19:29.012Z,0.60
2023-01-09T05:21:56.155Z,1.27
2023-01-09T05:24:22.611Z,1.33
2023-01-09T05:26:49.579Z,1.50
2023-01-09T05:29:16.270Z,1.48
2023-01-09T05:31:43.093Z,1.73
2023-01-09T05:34:09.524Z,2.13
2023-01-09T05:36:36.060Z,0.60
2023-01-09T05:39:03.245Z,1.88
2023-01-09T05:41:29.607Z,0.73
2023-01-09T05:43:56.685Z,1.05
2023-01-09T05:46:23.172Z,3.20
2023-01-09T05:48:49.949Z,2.45
2023-01-09T05:51:16.521Z,3.50
2023-01-09T05:53:42.943Z,3.38
2023-01-09T05:56:11.442Z,1.98
2023-01-09T05:58:38.271Z,1.23
2023-01-09T06:01:04.988Z,2.22
2023-01-09T06:03:31.639Z,1.52
2023-01-09T06:05:58.191Z,1.25
2023-01-09T06:08:24.641Z,6.50
2023-01-09T06:10:51.612Z,6.57
2023-01-09T06:13:18.148Z,2.45
2023-01-09T06:15:46.987Z,5.60
2023-01-09T06:18:13.465Z,1.88
2023-01-09T06:20:39.859Z,5.57
2023-01-09T06:23:06.509Z,1.50
2023-01-09T06:25:33.095Z,2.35
2023-01-09T06:27:59.523Z,1.67
2023-01-09T06:30:25.967Z,2.72
2023-01-09T06:32:52.906Z,2.10
2023-01-09T06:35:21.023Z,2.83
2023-01-09T06:37:48.697Z,2.95
2023-01-09T06:40:16.246Z,5.57
2023-01-09T06:42:44.670Z,6.65
2023-01-09T06:45:12.804Z,2.92
2023-01-09T06:47:40.491Z,5.13
2023-01-09T06:50:09.592Z,2.95
2023-01-09T06:52:40.285Z,2.92
2023-01-09T06:55:08.538Z,3.30
2023-01-09T06:57:35.218Z,4.13
2023-01-09T07:00:02.059Z,3.78
2023-01-09T07:02:28.495Z,4.50
2023-01-09T07:04:55.044Z,5.30
2023-01-09T07:07:22.343Z,9.10
2023-01-09T07:09:49.231Z,2.97
2023-01-09T07:12:16.046Z,4.88
2023-01-09T07:14:42.874Z,3.13
2023-01-09T07:17:12.370Z,5.18
2023-01-09T07:19:38.897Z,7.47
2023-01-09T07:22:05.366Z,4.50
2023-01-09T07:24:31.845Z,8.98
2023-01-09T07:26:58.642Z,7.43
2023-01-09T07:29:25.452Z,5.63
2023-01-09T07:31:51.927Z,8.40
2023-01-09T07:34:19.422Z,9.63
2023-01-09T07:36:46.825Z,5.72
2023-01-09T07:39:13.573Z,8.30
2023-01-09T07:41:40.500Z,7.70
2023-01-09T07:44:11.108Z,5.45
2023-01-09T07:46:38.168Z,9.93
2023-01-09T07:49:04.919Z,6.80
2023-01-09T07:51:31.805Z,5.72
2023-01-09T07:53:58.470Z,9.07
2023-01-09T07:56:24.968Z,8.55
2023-01-09T07:58:51.542Z,6.03
2023-01-09T08:01:18.596Z,5.00
2023-01-09T08:03:45.335Z,7.70
2023-01-09T08:06:12.070Z,5.32
2023-01-09T08:08:38.453Z,7.47
2023-01-09T08:11:05.329Z,8.80
2023-01-09T08:13:32.809Z,11.40
2023-01-09T08:15:59.343Z,8.32
2023-01-09T08:18:25.884Z,9.60
2023-01-09T08:20:52.348Z,7.05
2023-01-09T08:23:18.758Z,9.30
2023-01-09T08:25:45.412Z,6.00
2023-01-09T08:28:12.461Z,11.23
2023-01-09T08:30:38.985Z,8.63
2023-01-09T08:33:06.317Z,7.07
2023-01-09T08:35:32.956Z,15.07
2023-01-09T08:37:59.616Z,14.40
2023-01-09T08:40:26.284Z,6.63
2023-01-09T08:43:11.399Z,7.70
2023-01-09T08:45:56.918Z,14.00
2023-01-09T08:48:23.683Z,9.73
2023-01-09T08:50:50.221Z,7.72
2023-01-09T08:53:16.788Z,14.95
2023-01-09T08:55:43.648Z,12.27
2023-01-09T08:58:10.743Z,6.75
2023-01-09T09:00:37.813Z,8.00
2023-01-09T09:03:04.552Z,7.40
2023-01-09T09:05:32.206Z,5.43
2023-01-09T09:07:59.571Z,7.85
2023-01-09T09:10:28.029Z,10.77
2023-01-09T09:12:58.135Z,6.50
2023-01-09T09:15:26.769Z,8.30
2023-01-09T09:17:55.789Z,10.07
2023-01-09T09:20:24.756Z,6.97
2023-01-09T09:22:52.000Z,5.43
2023-01-09T09:25:19.497Z,5.88
2023-01-09T09:27:46.435Z,12.68
2023-01-09T09:30:15.951Z,7.35
2023-01-09T09:32:42.775Z,6.90
2023-01-09T09:35:09.902Z,8.02
2023-01-09T09:37:37.152Z,12.13
2023-01-09T09:40:17.508Z,6.90
2023-01-09T09:45:59.712Z,5.13
2023-01-09T09:49:07.245Z,8.55
2023-01-09T09:52:11.559Z,4.72
2023-01-09T09:54:43.356Z,12.50
2023-01-09T09:57:16.535Z,7.13
2023-01-09T09:59:44.546Z,7.53
2023-01-09T10:02:40.333Z,7.45
2023-01-09T10:05:17.088Z,7.15
2023-01-09T10:07:48.989Z,5.40
2023-01-09T10:10:31.496Z,8.30
2023-01-09T10:12:59.934Z,7.68
2023-01-09T10:15:51.497Z,5.15
2023-01-09T10:18:48.508Z,13.73
2023-01-09T10:21:58.885Z,7.70
2023-01-09T10:24:41.992Z,8.73
2023-01-09T10:27:18.879Z,6.10
2023-01-09T10:30:24.614Z,5.70
2023-01-09T10:32:57.786Z,5.95
2023-01-09T10:35:47.740Z,5.80
2023-01-09T10:38:22.070Z,2.38
2023-01-09T10:41:01.469Z,6.13
2023-01-09T10:43:51.421Z,3.80
2023-01-09T10:46:25.808Z,3.93
2023-01-09T10:48:59.411Z,13.20
2023-01-09T10:51:34.828Z,8.57
2023-01-09T10:54:02.135Z,8.63
2023-01-09T10:56:34.268Z,3.88
2023-01-09T10:59:01.492Z,4.32
2023-01-09T11:01:32.121Z,8.23
2023-01-09T11:04:01.782Z,4.88
2023-01-09T11:06:46.795Z,11.43
2023-01-09T11:09:15.054Z,9.52
2023-01-09T11:11:41.681Z,3.60
2023-01-09T11:14:16.039Z,3.75
2023-01-09T11:16:52.399Z,5.72
2023-01-09T11:19:19.453Z,4.45
2023-01-09T11:21:46.345Z,1.83
2023-01-09T11:24:18.938Z,4.43
2023-01-09T11:26:47.453Z,5.90
2023-01-09T11:29:19.120Z,4.75
2023-01-09T11:31:56.314Z,5.70
2023-01-09T11:34:25.304Z,7.05
2023-01-09T11:36:54.409Z,10.68
2023-01-09T11:39:21.371Z,2.92
2023-01-09T11:41:54.709Z,5.03
2023-01-09T11:44:21.857Z,2.75
2023-01-09T11:46:48.902Z,3.75
2023-01-09T11:49:15.342Z,4.95
2023-01-09T11:51:43.266Z,7.20
2023-01-09T11:54:23.959Z,6.38
2023-01-09T11:56:50.840Z,3.75
2023-01-09T11:59:20.704Z,6.85
2023-01-09T12:02:24.439Z,5.07
2023-01-09T12:05:06.988Z,9.23
2023-01-09T12:07:33.376Z,6.75
2023-01-09T12:10:18.451Z,5.47
2023-01-09T12:13:13.921Z,2.45
2023-01-09T12:15:56.143Z,5.32
2023-01-09T12:18:37.531Z,8.20
2023-01-09T12:21:32.770Z,4.43
2023-01-09T12:24:22.150Z,5.45
2023-01-09T12:26:55.026Z,3.87
2023-01-09T12:29:47.603Z,4.07
2023-01-09T12:32:51.520Z,3.63
2023-01-09T12:35:28.119Z,3.75
2023-01-09T12:38:22.384Z,5.68
2023-01-09T12:40:54.969Z,4.25
2023-01-09T12:43:37.713Z,7.00
2023-01-09T12:46:20.476Z,7.03
2023-01-09T12:49:22.340Z,3.80
2023-01-09T12:52:01.079Z,13.82
2023-01-09T12:54:49.507Z,7.03
2023-01-09T12:57:25.055Z,8.40
2023-01-09T12:59:56.857Z,4.75
2023-01-09T13:02:32.527Z,3.63
2023-01-09T13:05:06.159Z,2.85
2023-01-09T13:07:39.261Z,6.78
2023-01-09T13:10:22.292Z,6.78
2023-01-09T13:12:51.336Z,3.88
2023-01-09T13:15:45.911Z,8.38
2023-01-09T13:18:15.640Z,10.60
2023-01-09T13:20:47.162Z,10.88
2023-01-09T13:23:18.541Z,7.50
2023-01-09T13:25:52.533Z,7.70
2023-01-09T13:28:24.278Z,6.20
2023-01-09T13:31:05.703Z,7.57
2023-01-09T13:33:36.701Z,8.32
2023-01-09T13:36:04.090Z,5.97
2023-01-09T13:38:33.920Z,3.45
2023-01-09T13:41:33.471Z,5.80
2023-01-09T13:44:19.954Z,4.33
2023-01-09T13:46:50.167Z,5.65
2023-01-09T13:49:41.813Z,2.22
2023-01-09T13:52:38.334Z,3.03
2023-01-09T13:55:23.854Z,3.38
2023-01-09T13:58:06.013Z,6.13
2023-01-09T14:00:35.627Z,4.32
2023-01-09T14:03:18.001Z,4.33
2023-01-09T14:05:44.667Z,2.42
2023-01-09T14:08:19.295Z,4.13
2023-01-09T14:10:53.405Z,2.85
2023-01-09T14:13:27.700Z,2.53
2023-01-09T14:16:23.446Z,4.20
2023-01-09T14:19:05.354Z,3.22
2023-01-09T14:21:46.858Z,2.95
2023-01-09T14:24:22.188Z,4.68
2023-01-09T14:26:55.280Z,3.55
2023-01-09T14:29:29.620Z,5.05
2023-01-09T14:32:21.349Z,4.97
2023-01-09T14:34:53.677Z,3.60
2023-01-09T14:37:21.267Z,4.70
2023-01-09T14:39:51.246Z,4.10
2023-01-09T14:42:24.045Z,1.70
2023-01-09T14:45:07.303Z,3.30
2023-01-09T14:47:41.968Z,2.53
2023-01-09T14:50:14.788Z,3.20
2023-01-09T14:53:11.396Z,3.72
2023-01-09T14:55:57.957Z,5.10
2023-01-09T14:58:32.593Z,2.55
2023-01-09T15:01:19.324Z,3.10
2023-01-09T15:03:45.852Z,2.38
2023-01-09T15:06:16.749Z,2.97
2023-01-09T15:08:50.123Z,3.75
2023-01-09T15:11:18.294Z,1.55
2023-01-09T15:13:47.840Z,5.40
2023-01-09T15:16:18.995Z,2.85
2023-01-09T15:18:48.771Z,5.22
2023-01-09T15:21:21.522Z,2.83
2023-01-09T15:23:48.083Z,2.70
2023-01-09T15:26:30.503Z,4.97
2023-01-09T15:29:02.316Z,2.92
2023-01-09T15:31:29.221Z,3.30
2023-01-09T15:33:57.071Z,1.90
2023-01-09T15:36:26.793Z,2.22
2023-01-09T15:38:54.439Z,2.97
2023-01-09T15:41:48.977Z,4.05
2023-01-09T15:44:19.366Z,3.80
2023-01-09T15:46:49.821Z,2.30
2023-01-09T15:51:45.052Z,5.22
2023-01-09T15:54:27.062Z,4.32
2023-01-09T15:56:53.516Z,5.32
2023-01-09T15:59:24.135Z,4.70
2023-01-09T16:02:19.626Z,5.80
2023-01-09T16:04:51.514Z,8.40
2023-01-09T16:07:20.779Z,5.07
2023-01-09T16:09:49.094Z,7.50
2023-01-09T16:12:22.042Z,4.03
2023-01-09T16:14:53.170Z,5.30
2023-01-09T16:17:23.823Z,4.88
2023-01-09T16:19:58.550Z,2.65
2023-01-09T16:22:29.759Z,3.58
2023-01-09T16:24:58.504Z,4.80
2023-01-09T16:27:33.800Z,4.00
2023-01-09T16:30:06.875Z,8.48
2023-01-09T16:32:36.397Z,5.75
2023-01-09T16:35:14.221Z,10.07
2023-01-09T16:37:40.859Z,7.15
2023-01-09T16:40:25.313Z,5.63
2023-01-09T16:43:01.813Z,3.40
2023-01-09T16:45:40.253Z,7.35
2023-01-09T16:48:13.534Z,4.47
2023-01-09T16:50:40.794Z,7.22
2023-01-09T16:53:15.840Z,5.97
2023-01-09T16:55:42.850Z,6.57
2023-01-09T16:58:16.400Z,6.38
2023-01-09T17:00:44.257Z,7.18
2023-01-09T17:03:15.261Z,5.97
2023-01-09T17:05:42.460Z,4.50
2023-01-09T17:08:28.035Z,11.45
2023-01-09T17:10:56.320Z,11.10
2023-01-09T17:13:24.075Z,7.43
2023-01-09T17:15:52.955Z,8.73
2023-01-09T17:18:22.392Z,5.30
2023-01-09T17:20:51.943Z,7.05
2023-01-09T17:23:21.143Z,5.63
2023-01-09T17:26:08.246Z,3.85
2023-01-09T17:28:35.976Z,10.50
2023-01-09T17:31:09.126Z,3.83
2023-01-09T17:33:37.513Z,5.45
2023-01-09T17:36:15.569Z,5.75
2023-01-09T17:38:42.355Z,4.57
2023-01-09T17:41:12.767Z,5.13
2023-01-09T17:43:42.811Z,4.80
2023-01-09T17:46:21.996Z,3.40
2023-01-09T17:48:49.009Z,5.35
2023-01-09T17:51:15.537Z,7.28
2023-01-09T17:53:42.453Z,7.80
2023-01-09T17:56:15.961Z,6.13
2023-01-09T17:58:45.922Z,5.78
2023-01-09T18:01:17.745Z,3.65
2023-01-09T18:03:48.604Z,4.82
2023-01-09T18:06:18.096Z,5.03
2023-01-09T18:08:44.730Z,6.38
2023-01-09T18:11:17.765Z,4.15
2023-01-09T18:13:49.576Z,2.92
2023-01-09T18:16:23.901Z,1.83
2023-01-09T18:18:52.293Z,3.70
2023-01-09T18:21:23.227Z,3.05
2023-01-09T18:23:50.194Z,2.33
2023-01-09T18:26:20.951Z,7.32
2023-01-09T18:31:27.314Z,2.80
2023-01-09T18:33:56.734Z,4.63
2023-01-09T18:36:29.252Z,4.20
2023-01-09T18:39:01.418Z,6.80
2023-01-09T18:41:28.874Z,4.03
2023-01-09T18:43:57.886Z,8.48
2023-01-09T18:46:25.730Z,3.20
2023-01-09T18:48:59.238Z,5.72
2023-01-09T18:51:27.786Z,4.57
2023-01-09T18:53:55.129Z,5.13
2023-01-09T18:56:22.684Z,7.30
2023-01-09T18:58:49.309Z,6.30
2023-01-09T19:01:16.389Z,4.63
2023-01-09T19:03:43.115Z,4.80
2023-01-09T19:06:10.714Z,4.57
2023-01-09T19:08:37.653Z,4.13
2023-01-09T19:11:04.573Z,5.47
2023-01-09T19:13:34.406Z,4.25
2023-01-09T19:16:01.489Z,4.28
2023-01-09T19:18:29.542Z,3.78
2023-01-09T19:20:55.963Z,6.88
2023-01-09T19:23:25.792Z,7.30
2023-01-09T19:25:55.483Z,8.32
2023-01-09T19:28:22.193Z,3.83
2023-01-09T19:30:56.096Z,5.78
2023-01-09T19:33:24.317Z,4.13
2023-01-09T19:35:54.274Z,5.40
2023-01-09T19:38:24.946Z,6.18
2023-01-09T19:40:51.878Z,4.00
2023-01-09T19:43:27.488Z,5.10
2023-01-09T19:45:55.728Z,7.75
2023-01-09T19:48:23.551Z,6.78
2023-01-09T19:50:50.361Z,8.45
2023-01-09T19:53:16.835Z,8.30
2023-01-09T19:55:43.442Z,5.45
2023-01-09T19:58:10.222Z,10.38
2023-01-09T20:00:37.326Z,4.32
2023-01-09T20:03:04.221Z,3.38
2023-01-09T20:05:32.561Z,6.10
2023-01-09T20:07:59.041Z,5.35
2023-01-09T20:10:25.472Z,2.42
2023-01-09T20:12:52.057Z,7.78
2023-01-09T20:15:18.561Z,3.45
2023-01-09T20:17:45.298Z,11.05
2023-01-09T20:20:12.072Z,3.17
2023-01-09T20:22:38.715Z,4.70
2023-01-09T20:25:07.846Z,3.53
2023-01-09T20:27:34.403Z,7.40
2023-01-09T20:30:01.143Z,7.28
2023-01-09T20:32:30.074Z,4.75
2023-01-09T20:34:57.155Z,6.72
2023-01-09T20:37:24.143Z,4.00
2023-01-09T20:39:52.882Z,5.72
2023-01-09T20:42:19.453Z,4.93
2023-01-09T20:44:46.215Z,7.57
2023-01-09T20:47:12.914Z,5.30
2023-01-09T20:49:41.331Z,2.85
2023-01-09T20:52:07.825Z,4.40
2023-01-09T20:54:35.567Z,3.38
2023-01-09T20:57:02.673Z,6.80
2023-01-09T20:59:29.308Z,4.53
2023-01-09T21:01:56.042Z,7.00
2023-01-09T21:04:22.635Z,4.60
2023-01-09T21:06:50.339Z,8.40
2023-01-09T21:09:17.496Z,5.22
2023-01-09T21:11:44.191Z,4.50
2023-01-09T21:14:10.714Z,6.07
2023-01-09T21:16:37.308Z,5.53
2023-01-09T21:19:03.998Z,7.10
2023-01-09T21:21:33.451Z,10.05
2023-01-09T21:24:00.815Z,5.68
2023-01-09T21:26:30.182Z,5.00
2023-01-09T21:28:58.890Z,5.28
2023-01-09T21:31:34.313Z,4.38
2023-01-09T21:34:07.409Z,10.50
2023-01-09T21:36:35.122Z,12.10
2023-01-09T21:39:01.829Z,11.70
2023-01-09T21:41:46.758Z,12.23
2023-01-09T21:44:32.617Z,9.75
2023-01-09T21:47:00.963Z,6.95
2023-01-09T21:49:31.015Z,4.22
2023-01-09T21:51:58.216Z,7.40
2023-01-09T21:54:24.858Z,6.70
2023-01-09T21:56:52.751Z,7.97
2023-01-09T21:59:20.723Z,5.95
2023-01-09T22:01:50.996Z,5.28
2023-01-09T22:04:20.065Z,3.97
2023-01-09T22:06:46.775Z,6.55
2023-01-09T22:09:13.500Z,10.43
2023-01-09T22:11:41.155Z,7.32
2023-01-09T22:14:11.795Z,3.83
2023-01-09T22:16:38.402Z,4.00
2023-01-09T22:19:05.332Z,4.40
2023-01-09T22:21:31.939Z,4.68
2023-01-09T22:24:01.656Z,3.83
2023-01-09T22:26:29.386Z,8.10
2023-01-09T22:28:57.058Z,5.57
2023-01-09T22:31:26.082Z,5.25
2023-01-09T22:33:54.796Z,5.80
2023-01-09T22:36:21.490Z,4.90
2023-01-09T22:38:47.982Z,8.60
2023-01-09T22:41:14.780Z,4.50
2023-01-09T22:43:41.418Z,7.05
2023-01-09T22:46:11.409Z,8.82
2023-01-09T22:48:39.301Z,4.88
2023-01-09T22:51:20.407Z,4.90
2023-01-09T22:53:47.335Z,5.50
2023-01-09T22:56:16.492Z,3.80
2023-01-09T22:58:44.231Z,5.07
2023-01-09T23:01:12.548Z,4.82
2023-01-09T23:03:39.757Z,3.63
2023-01-09T23:06:10.519Z,5.53
2023-01-09T23:08:38.145Z,3.10
2023-01-09T23:11:07.499Z,5.70
2023-01-09T23:13:35.060Z,3.65
2023-01-09T23:16:01.750Z,3.50
2023-01-09T23:18:28.743Z,4.47
2023-01-09T23:21:04.796Z,6.57
2023-01-09T23:23:31.923Z,4.10
2023-01-09T23:26:02.102Z,3.70
2023-01-09T23:28:30.322Z,9.85
2023-01-09T23:30:57.102Z,3.78
2023-01-09T23:33:23.618Z,3.10
2023-01-09T23:35:50.050Z,5.32
2023-01-09T23:38:16.710Z,3.08
2023-01-09T23:40:43.152Z,3.03
2023-01-09T23:43:11.695Z,4.03
2023-01-09T23:45:40.357Z,4.93
2023-01-09T23:48:09.561Z,4.15
2023-01-09T23:50:36.887Z,3.50
2023-01-09T23:53:04.055Z,4.97
2023-01-09T23:55:31.131Z,3.67
2023-01-09T23:57:57.709Z,4.57
